createdAt,value
2022-10-20T00:01:28.241Z,91.34
2022-10-20T00:03:56.225Z,91.63
2022-10-20T00:06:32.454Z,91.18
2022-10-20T00:09:02.648Z,92.29
2022-10-20T00:11:43.172Z,91.96
2022-10-20T00:14:10.414Z,92.16
2022-10-20T00:16:39.207Z,92.40
2022-10-20T00:19:06.539Z,92.42
2022-10-20T00:21:33.532Z,92.53
2022-10-20T00:24:02.336Z,92.37
2022-10-20T00:26:31.646Z,92.17
2022-10-20T00:28:58.794Z,92.48
2022-10-20T00:31:26.395Z,92.34
2022-10-20T00:33:53.639Z,92.00
2022-10-20T00:36:23.533Z,91.63
2022-10-20T00:38:51.611Z,91.89
2022-10-20T00:41:21.407Z,91.63
2022-10-20T00:43:59.416Z,91.61
2022-10-20T00:46:44.616Z,91.92
2022-10-20T00:49:25.996Z,91.93
2022-10-20T00:51:54.803Z,91.94
2022-10-20T00:54:26.911Z,91.51
2022-10-20T00:56:56.680Z,91.71
2022-10-20T00:59:33.074Z,91.96
2022-10-20T01:02:02.475Z,92.01
2022-10-20T01:04:31.988Z,92.62
2022-10-20T01:06:59.293Z,92.25
2022-10-20T01:09:26.778Z,91.97
2022-10-20T01:12:11.482Z,91.93
2022-10-20T01:15:13.429Z,91.86
2022-10-20T01:18:02.176Z,91.90
2022-10-20T01:21:05.073Z,92.08
2022-10-20T01:24:11.741Z,91.91
2022-10-20T01:27:09.393Z,92.39
2022-10-20T01:30:21.378Z,92.26
2022-10-20T01:33:05.300Z,91.99
2022-10-20T01:36:00.306Z,92.99
2022-10-20T01:38:39.225Z,92.77
2022-10-20T01:41:34.171Z,92.69
2022-10-20T01:44:10.749Z,92.66
2022-10-20T01:46:41.258Z,92.67
2022-10-20T01:49:09.587Z,92.47
2022-10-20T01:51:36.595Z,92.87
2022-10-20T01:54:03.752Z,93.67
2022-10-20T01:56:47.291Z,93.75
2022-10-20T01:59:39.116Z,94.22
2022-10-20T02:02:16.951Z,94.17
2022-10-20T02:05:24.632Z,94.08
2022-10-20T02:08:00.497Z,94.54
2022-10-20T02:10:36.492Z,94.39
2022-10-20T02:13:07.316Z,94.26
2022-10-20T02:15:39.504Z,93.84
2022-10-20T02:18:09.355Z,94.17
2022-10-20T02:20:36.325Z,94.21
2022-10-20T02:23:06.492Z,93.92
2022-10-20T02:25:34.701Z,93.85
2022-10-20T02:28:04.596Z,93.74
2022-10-20T02:30:32.221Z,94.57
2022-10-20T02:32:59.161Z,94.16
2022-10-20T02:35:33.344Z,94.18
2022-10-20T02:38:01.152Z,93.74
2022-10-20T02:40:28.540Z,92.97
2022-10-20T02:42:55.427Z,93.07
2022-10-20T02:45:22.461Z,93.23
2022-10-20T02:47:49.342Z,93.30
2022-10-20T02:50:17.170Z,93.92
2022-10-20T02:52:44.109Z,94.21
2022-10-20T02:55:11.142Z,94.27
2022-10-20T02:57:38.618Z,94.09
2022-10-20T03:00:07.800Z,94.18
2022-10-20T03:02:34.937Z,94.21
2022-10-20T03:05:01.968Z,94.20
2022-10-20T03:07:28.940Z,94.08
2022-10-20T03:09:55.883Z,94.35
2022-10-20T03:12:22.865Z,94.58
2022-10-20T03:14:49.863Z,94.63
2022-10-20T03:17:16.843Z,94.95
2022-10-20T03:19:43.873Z,94.71
2022-10-20T03:22:10.947Z,94.52
2022-10-20T03:24:37.911Z,94.48
2022-10-20T03:27:04.907Z,94.30
2022-10-20T03:29:31.930Z,94.63
2022-10-20T03:31:58.929Z,94.32
2022-10-20T03:34:25.938Z,93.77
2022-10-20T03:36:53.156Z,93.47
2022-10-20T03:39:20.240Z,92.83
2022-10-20T03:41:47.273Z,92.92
2022-10-20T03:44:14.301Z,93.30
2022-10-20T03:46:41.251Z,93.45
2022-10-20T03:49:08.227Z,93.48
2022-10-20T03:51:35.222Z,93.41
2022-10-20T03:54:02.132Z,92.76
2022-10-20T03:56:29.035Z,92.24
2022-10-20T03:58:56.001Z,92.87
2022-10-20T04:01:31.188Z,92.07
2022-10-20T04:03:58.476Z,91.36
2022-10-20T04:06:25.699Z,91.55
2022-10-20T04:08:52.664Z,91.55
2022-10-20T04:11:19.654Z,92.38
2022-10-20T04:13:46.673Z,91.50
2022-10-20T04:16:13.732Z,92.58
2022-10-20T04:18:40.740Z,93.51
2022-10-20T04:21:07.692Z,93.90
2022-10-20T04:23:34.654Z,93.49
2022-10-20T04:26:09.742Z,93.55
2022-10-20T04:28:36.854Z,93.78
2022-10-20T04:31:04.669Z,93.65
2022-10-20T04:33:31.818Z,92.99
2022-10-20T04:36:06.010Z,93.04
2022-10-20T04:38:34.676Z,92.51
2022-10-20T04:41:04.483Z,92.47
2022-10-20T04:43:34.664Z,91.62
2022-10-20T04:46:07.294Z,91.86
2022-10-20T04:48:37.204Z,92.52
2022-10-20T04:51:10.524Z,92.86
2022-10-20T04:53:37.908Z,92.67
2022-10-20T04:56:07.332Z,92.75
2022-10-20T04:58:35.374Z,92.98
2022-10-20T05:01:07.050Z,93.05
2022-10-20T05:03:35.156Z,93.02
2022-10-20T05:06:27.935Z,92.84
2022-10-20T05:08:58.983Z,93.18
2022-10-20T05:11:28.702Z,93.43
2022-10-20T05:13:56.250Z,93.39
2022-10-20T05:16:24.190Z,93.30
2022-10-20T05:18:54.355Z,92.93
2022-10-20T05:21:26.608Z,92.32
2022-10-20T05:24:04.075Z,92.34
2022-10-20T05:26:34.955Z,92.35
2022-10-20T05:29:08.142Z,92.55
2022-10-20T05:31:43.910Z,91.43
2022-10-20T05:34:12.052Z,91.33
2022-10-20T05:36:39.127Z,90.76
2022-10-20T05:39:06.398Z,90.07
2022-10-20T05:41:37.917Z,89.33
2022-10-20T05:44:09.014Z,88.52
2022-10-20T05:46:41.312Z,88.55
2022-10-20T05:49:14.310Z,87.25
2022-10-20T05:51:41.671Z,86.49
2022-10-20T05:54:12.354Z,86.87
2022-10-20T05:56:39.735Z,86.26
2022-10-20T05:59:07.000Z,85.14
2022-10-20T06:01:48.300Z,85.53
2022-10-20T06:04:24.795Z,85.57
2022-10-20T06:06:53.160Z,84.23
2022-10-20T06:09:21.039Z,83.86
2022-10-20T06:11:48.614Z,84.47
2022-10-20T06:14:15.949Z,85.13
2022-10-20T06:16:43.608Z,83.97
2022-10-20T06:19:10.992Z,84.44
2022-10-20T06:21:38.650Z,84.51
2022-10-20T06:24:06.995Z,84.97
2022-10-20T06:26:38.900Z,85.22
2022-10-20T06:29:10.997Z,84.49
2022-10-20T06:31:41.698Z,84.74
2022-10-20T06:34:13.394Z,84.55
2022-10-20T06:36:42.039Z,84.71
2022-10-20T06:39:14.373Z,83.58
2022-10-20T06:41:41.635Z,72.44
2022-10-20T06:44:08.659Z,64.19
2022-10-20T06:46:37.132Z,60.83
2022-10-20T06:49:07.092Z,59.55
2022-10-20T06:51:36.076Z,62.69
2022-10-20T06:54:03.862Z,61.54
2022-10-20T06:56:34.108Z,58.48
2022-10-20T06:59:02.202Z,55.84
2022-10-20T07:01:39.698Z,53.16
2022-10-20T07:04:11.388Z,50.48
2022-10-20T07:06:41.424Z,48.55
2022-10-20T07:09:14.051Z,47.11
2022-10-20T07:11:42.040Z,46.72
2022-10-20T07:14:12.713Z,45.05
2022-10-20T07:16:39.741Z,43.81
2022-10-20T07:19:06.719Z,43.57
2022-10-20T07:21:38.338Z,42.62
2022-10-20T07:24:09.254Z,42.40
2022-10-20T07:26:40.966Z,42.24
2022-10-20T07:29:08.846Z,41.53
2022-10-20T07:31:45.555Z,41.76
2022-10-20T07:34:30.988Z,41.05
2022-10-20T07:36:58.229Z,41.15
2022-10-20T07:39:26.187Z,40.86
2022-10-20T07:41:53.525Z,41.34
2022-10-20T07:44:20.765Z,40.63
2022-10-20T07:46:47.769Z,40.36
2022-10-20T07:52:01.659Z,40.92
2022-10-20T07:54:28.592Z,40.29
2022-10-20T07:56:55.526Z,40.22
2022-10-20T07:59:22.567Z,40.96
2022-10-20T08:01:49.557Z,40.48
2022-10-20T08:04:16.609Z,41.25
2022-10-20T08:06:43.513Z,41.38
2022-10-20T08:09:10.573Z,43.13
2022-10-20T08:11:37.505Z,43.51
2022-10-20T08:14:05.024Z,43.87
2022-10-20T08:16:37.277Z,45.03
2022-10-20T08:21:47.983Z,46.00
2022-10-20T08:24:14.936Z,46.14
2022-10-20T08:26:42.025Z,47.33
2022-10-20T08:29:09.964Z,47.56
2022-10-20T08:31:36.897Z,49.28
2022-10-20T08:34:03.913Z,48.28
2022-10-20T08:36:31.074Z,48.02
2022-10-20T08:39:03.614Z,48.36
2022-10-20T08:44:35.209Z,50.58
2022-10-20T08:47:13.292Z,51.52
2022-10-20T08:49:40.354Z,51.63
2022-10-20T08:52:14.962Z,53.16
2022-10-20T08:54:42.217Z,53.44
2022-10-20T08:57:33.331Z,53.74
2022-10-20T09:00:22.527Z,53.11
2022-10-20T09:02:50.804Z,53.93
2022-10-20T09:05:32.000Z,53.29
2022-10-20T09:07:59.071Z,54.04
2022-10-20T09:10:44.634Z,54.22
2022-10-20T09:13:28.102Z,52.30
2022-10-20T09:16:41.957Z,52.10
2022-10-20T09:19:23.389Z,49.84
2022-10-20T09:21:54.850Z,47.70
2022-10-20T09:24:24.374Z,46.30
2022-10-20T09:26:59.243Z,45.48
2022-10-20T09:29:38.909Z,44.09
2022-10-20T09:35:30.244Z,43.73
2022-10-20T09:37:59.265Z,43.39
2022-10-20T09:40:27.874Z,41.66
2022-10-20T09:43:02.288Z,40.59
2022-10-20T09:45:32.539Z,40.28
2022-10-20T09:48:15.254Z,40.42
2022-10-20T09:50:51.409Z,40.97
2022-10-20T09:53:23.987Z,41.15
2022-10-20T09:55:52.247Z,41.78
2022-10-20T09:58:31.070Z,40.71
2022-10-20T10:01:17.330Z,39.32
2022-10-20T10:03:48.155Z,39.18
2022-10-20T10:06:38.876Z,39.35
2022-10-20T10:09:35.235Z,40.03
2022-10-20T10:12:10.869Z,40.45
2022-10-20T10:14:39.101Z,40.63
2022-10-20T10:17:06.061Z,40.52
2022-10-20T10:19:34.380Z,41.48
2022-10-20T10:22:03.640Z,40.24
2022-10-20T10:24:46.556Z,39.48
2022-10-20T10:27:25.547Z,38.46
2022-10-20T10:29:54.420Z,37.61
2022-10-20T10:32:29.485Z,37.30
2022-10-20T10:35:29.261Z,37.03
2022-10-20T10:37:58.185Z,36.40
2022-10-20T10:41:09.944Z,35.58
2022-10-20T10:44:28.528Z,34.24
2022-10-20T10:47:15.892Z,34.19
2022-10-20T10:50:19.252Z,34.32
2022-10-20T10:53:20.655Z,34.42
2022-10-20T10:56:27.955Z,34.77
2022-10-20T10:59:12.553Z,34.70
2022-10-20T11:01:52.414Z,35.73
2022-10-20T11:05:06.068Z,36.17
2022-10-20T11:07:53.740Z,38.15
2022-10-20T11:10:29.214Z,39.20
2022-10-20T11:13:44.872Z,40.35
2022-10-20T11:16:44.174Z,40.73
2022-10-20T11:19:47.298Z,40.59
2022-10-20T11:22:29.088Z,40.67
2022-10-20T11:25:31.529Z,40.93
2022-10-20T11:27:59.146Z,42.99
2022-10-20T11:30:27.515Z,42.90
2022-10-20T11:33:19.161Z,42.94
2022-10-20T11:35:53.303Z,42.80
2022-10-20T11:38:56.239Z,42.67
2022-10-20T11:41:44.613Z,42.11
2022-10-20T11:44:24.373Z,41.99
2022-10-20T11:47:03.577Z,41.82
2022-10-20T11:49:33.782Z,42.05
2022-10-20T11:52:47.022Z,41.81
2022-10-20T11:55:48.564Z,40.43
2022-10-20T11:58:46.033Z,39.38
2022-10-20T12:01:50.189Z,38.93
2022-10-20T12:05:09.902Z,39.63
2022-10-20T12:08:28.179Z,40.12
2022-10-20T12:11:17.973Z,40.16
2022-10-20T12:14:14.879Z,40.86
2022-10-20T12:16:54.110Z,41.38
2022-10-20T12:19:22.506Z,40.89
2022-10-20T12:22:14.902Z,40.80
2022-10-20T12:25:01.704Z,41.06
2022-10-20T12:27:28.984Z,41.67
2022-10-20T12:30:02.591Z,40.73
2022-10-20T12:32:29.423Z,41.58
2022-10-20T12:35:21.354Z,42.40
2022-10-20T12:38:04.269Z,43.75
2022-10-20T12:40:55.463Z,44.39
2022-10-20T12:43:33.533Z,43.34
2022-10-20T12:46:31.451Z,43.55
2022-10-20T12:49:06.687Z,43.46
2022-10-20T12:51:53.039Z,43.86
2022-10-20T12:54:48.703Z,42.90
2022-10-20T12:57:41.698Z,44.56
2022-10-20T13:00:28.870Z,44.39
2022-10-20T13:02:58.727Z,45.30
2022-10-20T13:05:42.549Z,44.88
2022-10-20T13:08:21.158Z,44.28
2022-10-20T13:10:49.408Z,44.34
2022-10-20T13:13:19.269Z,44.47
2022-10-20T13:15:47.469Z,45.31
2022-10-20T13:18:20.369Z,45.00
2022-10-20T13:20:53.803Z,45.85
2022-10-20T13:23:37.456Z,46.41
2022-10-20T13:26:36.305Z,47.57
2022-10-20T13:29:17.121Z,47.38
2022-10-20T13:32:31.926Z,47.15
2022-10-20T13:35:08.028Z,47.72
2022-10-20T13:37:46.771Z,48.12
2022-10-20T13:40:31.086Z,47.75
2022-10-20T13:43:15.929Z,47.55
2022-10-20T13:45:56.939Z,47.73
2022-10-20T13:49:20.654Z,47.95
2022-10-20T13:51:56.961Z,47.93
2022-10-20T13:54:31.554Z,48.06
2022-10-20T13:56:58.967Z,47.92
2022-10-20T13:59:29.077Z,48.33
2022-10-20T14:02:31.410Z,48.19
2022-10-20T14:05:12.933Z,48.38
2022-10-20T14:07:42.924Z,48.68
2022-10-20T14:10:52.463Z,49.04
2022-10-20T14:13:24.651Z,49.75
2022-10-20T14:15:56.539Z,50.00
2022-10-20T14:18:39.136Z,50.24
2022-10-20T14:21:17.607Z,50.25
2022-10-20T14:23:47.005Z,51.12
2022-10-20T14:26:18.990Z,50.45
2022-10-20T14:28:48.694Z,50.24
2022-10-20T14:31:16.235Z,50.99
2022-10-20T14:33:46.102Z,50.81
2022-10-20T14:36:28.944Z,50.86
2022-10-20T14:39:01.210Z,51.32
2022-10-20T14:41:35.099Z,51.03
2022-10-20T14:44:12.187Z,51.25
2022-10-20T14:46:47.839Z,51.50
2022-10-20T14:49:19.294Z,51.90
2022-10-20T14:52:00.263Z,51.65
2022-10-20T14:54:39.519Z,51.98
2022-10-20T14:57:09.211Z,52.03
2022-10-20T15:00:04.597Z,52.92
2022-10-20T15:02:42.653Z,52.96
2022-10-20T15:05:42.399Z,52.62
2022-10-20T15:08:18.397Z,52.62
2022-10-20T15:10:46.051Z,52.62
2022-10-20T15:13:31.534Z,52.54
2022-10-20T15:16:04.521Z,53.13
2022-10-20T15:18:33.452Z,53.30
2022-10-20T15:21:02.305Z,53.33
2022-10-20T15:23:29.727Z,52.56
2022-10-20T15:26:10.500Z,52.57
2022-10-20T15:28:45.576Z,52.06
2022-10-20T15:31:26.766Z,51.73
2022-10-20T15:33:55.707Z,51.68
2022-10-20T15:36:33.881Z,51.87
2022-10-20T15:39:01.968Z,52.16
2022-10-20T15:41:33.437Z,52.23
2022-10-20T15:44:15.452Z,51.60
2022-10-20T15:46:44.875Z,52.60
2022-10-20T15:49:12.987Z,52.71
2022-10-20T15:51:44.248Z,52.59
2022-10-20T15:54:21.153Z,53.56
2022-10-20T15:56:48.476Z,53.51
2022-10-20T15:59:15.414Z,53.48
2022-10-20T16:01:42.397Z,53.81
2022-10-20T16:04:31.346Z,54.13
2022-10-20T16:07:02.578Z,54.28
2022-10-20T16:09:30.339Z,53.89
2022-10-20T16:11:57.268Z,53.79
2022-10-20T16:14:24.242Z,54.20
2022-10-20T16:16:51.298Z,55.00
2022-10-20T16:19:18.203Z,55.91
2022-10-20T16:21:45.137Z,56.50
2022-10-20T16:24:12.058Z,55.91
2022-10-20T16:26:39.018Z,55.00
2022-10-20T16:29:05.939Z,55.36
2022-10-20T16:31:32.909Z,55.47
2022-10-20T16:34:00.495Z,54.91
2022-10-20T16:36:27.633Z,55.00
2022-10-20T16:38:56.862Z,54.76
2022-10-20T16:41:24.024Z,54.36
2022-10-20T16:43:50.997Z,54.50
2022-10-20T16:46:18.214Z,55.20
2022-10-20T16:48:48.034Z,56.93
2022-10-20T16:51:16.068Z,56.85
2022-10-20T16:53:43.232Z,57.47
2022-10-20T16:56:10.718Z,57.91
2022-10-20T16:58:37.653Z,58.21
2022-10-20T17:01:08.788Z,58.98
2022-10-20T17:06:19.270Z,58.43
2022-10-20T17:08:47.115Z,59.00
2022-10-20T17:11:21.683Z,59.68
2022-10-20T17:13:49.060Z,59.20
2022-10-20T17:16:30.061Z,59.53
2022-10-20T17:18:59.185Z,59.95
2022-10-20T17:21:28.154Z,59.98
2022-10-20T17:23:55.230Z,59.17
2022-10-20T17:26:25.003Z,58.83
2022-10-20T17:29:03.059Z,59.06
2022-10-20T17:31:30.460Z,59.81
2022-10-20T17:33:59.223Z,59.83
2022-10-20T17:36:28.500Z,60.20
2022-10-20T17:39:02.535Z,60.17
2022-10-20T17:41:30.302Z,59.66
2022-10-20T17:44:04.111Z,59.36
2022-10-20T17:46:31.963Z,59.47
2022-10-20T17:49:01.551Z,59.83
2022-10-20T17:51:31.921Z,60.04
2022-10-20T17:54:01.696Z,60.67
2022-10-20T17:56:32.036Z,60.47
2022-10-20T17:59:00.636Z,60.07
2022-10-20T18:01:34.575Z,60.52
2022-10-20T18:04:09.836Z,60.60
2022-10-20T18:06:38.141Z,61.24
2022-10-20T18:09:11.050Z,60.68
2022-10-20T18:11:40.950Z,61.28
2022-10-20T18:14:07.915Z,61.99
2022-10-20T18:16:37.996Z,62.17
2022-10-20T18:19:06.133Z,62.46
2022-10-20T18:21:33.892Z,62.99
2022-10-20T18:24:05.042Z,63.38
2022-10-20T18:26:35.308Z,63.33
2022-10-20T18:29:06.017Z,64.20
2022-10-20T18:31:35.061Z,64.86
2022-10-20T18:34:07.128Z,65.08
2022-10-20T18:36:39.134Z,65.98
2022-10-20T18:39:10.055Z,66.04
2022-10-20T18:41:40.551Z,65.62
2022-10-20T18:44:14.037Z,65.44
2022-10-20T18:46:42.533Z,65.63
2022-10-20T18:49:12.726Z,66.11
2022-10-20T18:51:40.536Z,66.65
2022-10-20T18:54:09.182Z,66.72
2022-10-20T18:56:36.555Z,66.56
2022-10-20T18:59:08.999Z,66.55
2022-10-20T19:01:38.791Z,66.41
2022-10-20T19:04:07.530Z,66.82
2022-10-20T19:06:44.387Z,65.92
2022-10-20T19:09:15.716Z,65.97
2022-10-20T19:11:43.849Z,66.75
2022-10-20T19:14:11.695Z,67.21
2022-10-20T19:16:41.803Z,68.17
2022-10-20T19:19:09.669Z,69.42
2022-10-20T19:21:37.099Z,70.52
2022-10-20T19:24:30.276Z,69.89
2022-10-20T19:27:24.682Z,69.60
2022-10-20T19:29:45.044Z,69.79
2022-10-20T19:32:12.542Z,69.84
2022-10-20T19:34:41.098Z,69.26
2022-10-20T19:37:09.057Z,70.08
2022-10-20T19:39:40.023Z,69.95
2022-10-20T19:42:08.594Z,69.42
2022-10-20T19:44:36.334Z,69.11
2022-10-20T19:47:04.955Z,70.61
2022-10-20T19:49:32.110Z,71.62
2022-10-20T19:51:59.178Z,71.79
2022-10-20T19:54:26.231Z,70.68
2022-10-20T19:56:53.205Z,71.11
2022-10-20T19:59:20.414Z,70.68
2022-10-20T20:01:49.645Z,71.10
2022-10-20T20:04:16.619Z,71.46
2022-10-20T20:06:43.602Z,70.28
2022-10-20T20:09:12.103Z,70.75
2022-10-20T20:11:39.257Z,71.02
2022-10-20T20:14:18.410Z,71.73
2022-10-20T20:16:46.686Z,71.11
2022-10-20T20:19:16.457Z,70.53
2022-10-20T20:21:44.192Z,69.89
2022-10-20T20:24:12.826Z,69.92
2022-10-20T20:26:39.900Z,70.80
2022-10-20T20:29:06.885Z,72.12
2022-10-20T20:31:34.013Z,72.71
2022-10-20T20:34:01.591Z,73.40
2022-10-20T20:36:29.159Z,73.38
2022-10-20T20:38:58.342Z,73.34
2022-10-20T20:41:28.003Z,73.88
2022-10-20T20:43:55.296Z,73.89
2022-10-20T20:46:24.245Z,74.50
2022-10-20T20:48:51.725Z,74.38
2022-10-20T20:51:18.914Z,74.84
2022-10-20T20:53:45.857Z,74.98
2022-10-20T20:56:15.729Z,75.45
2022-10-20T20:58:49.018Z,75.22
2022-10-20T21:01:22.066Z,75.82
2022-10-20T21:03:57.895Z,76.86
2022-10-20T21:06:33.690Z,76.76
2022-10-20T21:09:01.469Z,76.45
2022-10-20T21:11:28.595Z,76.41
2022-10-20T21:13:57.549Z,74.73
2022-10-20T21:16:26.272Z,74.32
2022-10-20T21:18:57.215Z,73.69
2022-10-20T21:21:28.113Z,73.37
2022-10-20T21:23:56.899Z,72.70
2022-10-20T21:26:24.267Z,72.59
2022-10-20T21:28:51.541Z,72.25
2022-10-20T21:31:22.163Z,72.57
2022-10-20T21:34:05.675Z,72.10
2022-10-20T21:36:37.857Z,72.15
2022-10-20T21:39:07.749Z,72.44
2022-10-20T21:41:35.934Z,72.41
2022-10-20T21:44:06.530Z,72.36
2022-10-20T21:46:36.991Z,72.09
2022-10-20T21:49:07.816Z,72.38
2022-10-20T21:51:38.617Z,71.87
2022-10-20T21:54:10.181Z,72.43
2022-10-20T21:56:41.200Z,72.24
2022-10-20T21:59:15.568Z,73.13
2022-10-20T22:01:42.506Z,73.17
2022-10-20T22:04:09.447Z,73.05
2022-10-20T22:06:38.449Z,73.37
2022-10-20T22:09:06.764Z,73.54
2022-10-20T22:11:40.964Z,73.10
2022-10-20T22:14:07.979Z,73.10
2022-10-20T22:16:39.144Z,73.23
2022-10-20T22:19:13.083Z,73.69
2022-10-20T22:21:43.667Z,73.60
2022-10-20T22:24:10.799Z,73.88
2022-10-20T22:26:38.666Z,74.23
2022-10-20T22:29:09.566Z,74.29
2022-10-20T22:31:38.821Z,74.65
2022-10-20T22:34:06.809Z,74.34
2022-10-20T22:36:33.861Z,74.62
2022-10-20T22:39:00.932Z,74.81
2022-10-20T22:41:28.047Z,75.02
2022-10-20T22:43:54.963Z,74.89
2022-10-20T22:46:21.889Z,75.10
2022-10-20T22:48:48.979Z,74.92
2022-10-20T22:51:16.560Z,75.02
2022-10-20T22:53:43.857Z,75.48
2022-10-20T22:56:14.891Z,75.33
2022-10-20T22:58:42.506Z,75.86
2022-10-20T23:01:19.238Z,75.65
2022-10-20T23:03:47.356Z,75.51
2022-10-20T23:06:24.651Z,75.85
2022-10-20T23:08:55.013Z,75.56
2022-10-20T23:11:22.131Z,75.82
2022-10-20T23:13:51.029Z,76.48
2022-10-20T23:16:18.959Z,76.93
2022-10-20T23:18:46.342Z,77.29
2022-10-20T23:21:14.215Z,77.34
2022-10-20T23:23:41.531Z,77.22
2022-10-20T23:26:09.798Z,77.31
2022-10-20T23:28:37.922Z,77.85
2022-10-20T23:31:20.702Z,77.80
2022-10-20T23:33:50.065Z,78.11
2022-10-20T23:36:17.596Z,78.03
2022-10-20T23:38:46.289Z,78.05
2022-10-20T23:41:13.635Z,78.36
2022-10-20T23:43:40.851Z,78.60
2022-10-20T23:46:08.708Z,78.67
2022-10-20T23:48:35.905Z,78.62
2022-10-20T23:51:02.911Z,78.77
2022-10-20T23:53:30.456Z,78.23
2022-10-20T23:55:57.395Z,78.60
2022-10-20T23:58:24.424Z,78.69
